Weather Models
Both GFS & NAM
00z 06z 12z 18z
24hr Precip
00z 06z 12z 18z
36hr Simulated radar
00z 06z 12z 18z
SKEWT Soundings
00z 12z
Current Conditions (Updated 12:00am on 10/20/19)
Temperature
 55°
-0.54
55°  
55°  
0
10
20
30
40
50
60
70
80
90
100
Dew Point
45°
45°  
45°  
-20
-10
0
10
20
30
40
50
60
70
80
Wind Chill
55°
55°  
55°  
-20
-10
0
10
20
30
40
50
60
70
80
Wind Chill
Humidity
67%
67% 
67% 
0
10
20
30
40
50
60
70
80
90
100
Barometer
30.07
   Steady
30.07  
30.07  
28.00
28.30
28.60
28.90
29.20
29.50
29.80
30.10
30.40
30.70
31.00
Temperature
Dew Point
Humidity
Pressure
Wind
0mph
 SE
Daily Rain
.00
.05
.10
.15
.20
.25
.30
.35
.40
.45
.50
Rain Today
 0.00" 
Month Rain
0.00
0.20
0.40
0.60
0.80
1.00
1.20
1.40
1.60
1.80
2.00
Month Rain
 1.56" 
Year Rain
0.00
5.00
10.00
15.00
20.00
25.00
30.00
35.00
40.00
45.00
50.00
Year Rain
 44.41" 
Sun & Moon Data
Sunrise 7:17am
Sunset 6:15pm
Moonrise 11:20pm
Moonset 1:42pm
Moon % 72%
Other Rain Data
Past Hour 0.00 Past 24 Hours 0.00
Past 3 Hours 0.00 Past 7 Days 1.15
Past 6 Hours 0.00
Cloud Height
2688


Current Front Map
Current Satellite map
7 Day Forecast
NWS Forecast for Philadelphia PA
National Weather Service Forecast for: Philadelphia PA
Issued by: National Weather Service Philadelphia, PA
Updated: 9:49 pm EDT Oct 19, 2019

Philadelphia
 
Tonight

Tonight: Mostly cloudy, with a low around 47. Light east wind.
Mostly Cloudy

Sunday

Sunday: Rain likely, mainly between 9am and 2pm.  Cloudy, with a high near 60. Light east wind becoming northeast 5 to 9 mph in the morning.  Chance of precipitation is 70%. New precipitation amounts between a quarter and half of an inch possible.
Rain Likely

Sunday
Night
Sunday Night: A chance of rain before 8pm.  Mostly cloudy, with a low around 49. Northeast wind around 10 mph.  Chance of precipitation is 30%. New precipitation amounts of less than a tenth of an inch possible.
Chance Rain
then Partly
Cloudy
Monday

Monday: Mostly sunny, with a high near 68. North wind around 6 mph.
Mostly Sunny

Monday
Night
Monday Night: Mostly cloudy, with a low around 54. East wind around 5 mph becoming calm  in the evening.
Mostly Cloudy

Tuesday

Tuesday: Showers likely, mainly after 2pm.  Cloudy, with a high near 68. Chance of precipitation is 70%. New precipitation amounts between a tenth and quarter of an inch possible.
Showers
Likely
Tuesday
Night
Tuesday Night: Showers likely, mainly before 2am.  Mostly cloudy, with a low around 52. Chance of precipitation is 60%.
Showers
Likely
Wednesday

Wednesday: A chance of showers before 8am.  Sunny, with a high near 65. Chance of precipitation is 30%.
Chance
Showers then
Sunny
Wednesday
Night
Wednesday Night: Clear, with a low around 47.
Clear

Lo 47 °F Hi 60 °F Lo 49 °F Hi 68 °F Lo 54 °F Hi 68 °F Lo 52 °F Hi 65 °F Lo 47 °F

 

Tonight
 
Mostly cloudy, with a low around 47. Light east wind.
Sunday
 
Rain likely, mainly between 9am and 2pm. Cloudy, with a high near 60. Light east wind becoming northeast 5 to 9 mph in the morning. Chance of precipitation is 70%. New precipitation amounts between a quarter and half of an inch possible.
Sunday Night
 
A chance of rain before 8pm. Mostly cloudy, with a low around 49. Northeast wind around 10 mph. Chance of precipitation is 30%. New precipitation amounts of less than a tenth of an inch possible.
Monday
 
Mostly sunny, with a high near 68. North wind around 6 mph.
Monday Night
 
Mostly cloudy, with a low around 54. East wind around 5 mph becoming calm in the evening.
Tuesday
 
Showers likely, mainly after 2pm. Cloudy, with a high near 68. Chance of precipitation is 70%. New precipitation amounts between a tenth and quarter of an inch possible.
Tuesday Night
 
Showers likely, mainly before 2am. Mostly cloudy, with a low around 52. Chance of precipitation is 60%.
Wednesday
 
A chance of showers before 8am. Sunny, with a high near 65. Chance of precipitation is 30%.
Wednesday Night
 
Clear, with a low around 47.
Thursday
 
Sunny, with a high near 67.
Thursday Night
 
Mostly clear, with a low around 50.
Friday
 
Mostly sunny, with a high near 66.
Friday Night
 
A chance of showers. Mostly cloudy, with a low around 53. Chance of precipitation is 50%.
Saturday
 
A chance of showers. Mostly cloudy, with a high near 63. Chance of precipitation is 50%.

 

Forecast from NOAA-NWS for Philadelphia PA.

Area Weather Current Conditions
Nearby METAR Reports

KPHL - Philadelphia, Pennsylvania
Updated: Sat, 19-Oct-2019 11:54pm EDT
Overcast
Overcast
 Wind from calm
Wind: Calm
Temperature: 54°F , 12°C
Dew Point: 46°F , 8°C
Humidity: 77%
Barometer: 30.04 inHg , 1017.3 hPa
Clouds: Overcast
Visibility: 10 miles , 16 km
Cloud details: Overcast 25000 ft
2019/10/20 03:54 KPHL 200354Z 00000KT 10SM OVC250 12/08 A3004 RMK AO2 SLP172 T01170078 $
KMPO - Mt. Pocono, Pennsylvania
Updated: Sat, 19-Oct-2019 11:53pm EDT
Clear
Clear
 Wind from calm
Wind: Calm
Temperature: 37°F , 3°C
Dew Point: 36°F , 2°C
Humidity: 93%
Barometer: 30.01 inHg , 1016.3 hPa
Clouds: Clear
Visibility: 10 miles , 16 km
2019/10/20 03:53 KMPO 200353Z AUTO 00000KT 10SM CLR 03/02 A3001 RMK AO2 SLP173 T00280022 $
 
KACY - Atlantic City, New Jersey
Updated: Sat, 19-Oct-2019 11:54pm EDT
Clear
Clear
 Wind from calm
Wind: Calm
Temperature: 48°F , 9°C
Dew Point: 45°F , 7°C
Humidity: 87%
Barometer: 30.05 inHg , 1017.6 hPa
Clouds: Clear
Visibility: 10 miles , 16 km
2019/10/20 03:54 KACY 200354Z 00000KT 10SM CLR 09/07 A3005 RMK AO2 SLP175 T00890067
KMIV - Millville, New Jersey
Updated: Sat, 19-Oct-2019 11:54pm EDT
Clear
Clear
 Wind from calm
Wind: Calm
Temperature: 46°F , 8°C
Dew Point: 45°F , 7°C
Humidity: 93%
Barometer: 30.04 inHg , 1017.3 hPa
Clouds: Clear
Visibility: 10 miles , 16 km
2019/10/20 03:54 KMIV 200354Z AUTO 00000KT 10SM CLR 08/07 A3004 RMK AO2 SLP172 T00830067
 
KWWD - Wildwood, New Jersey
Updated: Wed, 16-Oct-2019 11:56pm EDT
NOT Current
Mostly Cloudy
Mostly Cloudy
 Wind from WNW
Wind: WNW 22 mph , 35 km/h, Gust: 35 mph , 56 km/h
Temperature: 55°F , 13°C
Dew Point: 43°F , 6°C
Humidity: 63%
Barometer: 29.45 inHg , 997.3 hPa
Clouds: Mostly Cloudy
Visibility: 10 miles , 16 km
Cloud details: Mostly Cloudy 3900 ft
2019/10/17 03:56 KWWD 170356Z AUTO 29019G30KT 10SM BKN039 13/06 A2945 RMK AO2 PK WND 28035/0334 SLP976 P0001 T01280056
KDOV - Dover Afb, Delaware
Updated: Sat, 19-Oct-2019 11:56pm EDT
Mostly Cloudy
Mostly Cloudy
 Wind from calm
Wind: Calm
Temperature: 52°F , 11°C
Dew Point: 45°F , 7°C
Humidity: 77%
Barometer: 30.04 inHg , 1017.3 hPa
Clouds: Mostly Cloudy
Visibility: 10 miles , 16 km
Cloud details: Mostly Cloudy 23000 ft
2019/10/20 03:56 KDOV 200356Z 00000KT 10SM BKN230 11/07 A3004 RMK AO2A SLP176 T01060071 RVRNO $
Severe Weather Map